Time;durP1;ratioP1;P1;durP2;ratioP2;P2;SDS_P1;SDS_P2;PMS_P1;PMS_P2;Temp;Humidity;BMP_temperature;BMP_pressure;BME280_temperature;BME280_humidity;BME280_pressure;Samples;Min_cycle;Max_cycle;Signal;HPM_P1;HPM_P2
2022/03/27 00:02:01;;;;;;;78.63;56.22;;;18.50;51.20;;;;;;4979683;28;90804;-88
2022/03/27 00:04:27;;;;;;;77.18;55.70;;;18.40;51.20;;;;;;4977119;28;89364;-88
2022/03/27 00:06:52;;;;;;;77.20;56.67;;;18.40;51.20;;;;;;4985165;28;93670;-88
2022/03/27 00:09:18;;;;;;;78.38;56.28;;;18.40;51.10;;;;;;4995964;28;91141;-87
2022/03/27 00:11:44;;;;;;;76.82;55.47;;;18.40;51.10;;;;;;4998321;28;91846;-88
2022/03/27 00:14:09;;;;;;;76.20;55.67;;;18.40;51.10;;;;;;4985242;28;91287;-88
2022/03/27 00:16:35;;;;;;;76.85;55.33;;;18.40;51.40;;;;;;4995408;28;91085;-88
2022/03/27 00:19:02;;;;;;;73.80;54.50;;;18.40;51.00;;;;;;5000483;28;90255;-87
2022/03/27 00:21:28;;;;;;;76.53;56.17;;;18.40;51.10;;;;;;4984418;28;90765;-87
2022/03/27 00:23:53;;;;;;;76.32;55.45;;;18.40;51.10;;;;;;4991112;28;89544;-88
2022/03/27 00:26:21;;;;;;;77.30;56.22;;;18.30;51.00;;;;;;5000790;28;92247;-88
2022/03/27 00:28:46;;;;;;;75.85;55.30;;;18.40;51.20;;;;;;4996873;28;90724;-88
2022/03/27 00:31:12;;;;;;;76.43;56.25;;;18.30;51.10;;;;;;4999519;28;89790;-88
2022/03/27 00:33:40;;;;;;;76.63;55.63;;;18.30;51.00;;;;;;4975178;28;90868;-88
2022/03/27 00:36:08;;;;;;;76.35;55.25;;;18.30;51.10;;;;;;4984099;28;94000;-89
2022/03/27 00:38:34;;;;;;;76.95;56.03;;;18.30;51.20;;;;;;4976309;28;93457;-89
2022/03/27 00:41:01;;;;;;;78.18;55.42;;;18.30;51.10;;;;;;4998866;28;92014;-90
2022/03/27 00:43:27;;;;;;;75.97;55.70;;;18.30;51.10;;;;;;4984335;28;89868;-89
2022/03/27 00:45:54;;;;;;;75.95;55.40;;;18.20;51.00;;;;;;4984786;28;93912;-88
2022/03/27 00:48:21;;;;;;;76.55;55.63;;;18.20;51.10;;;;;;4983330;28;93717;-89
2022/03/27 00:50:52;;;;;;;76.82;55.17;;;18.20;51.10;;;;;;4998243;28;89943;-89
2022/03/27 00:53:18;;;;;;;74.72;55.17;;;18.30;51.10;;;;;;4998992;28;89005;-89
2022/03/27 00:55:48;;;;;;;74.30;54.72;;;18.20;51.20;;;;;;4981319;28;92942;-89
2022/03/27 00:58:16;;;;;;;77.43;54.88;;;18.20;51.10;;;;;;4977900;28;92699;-89
2022/03/27 01:00:58;;;;;;;77.50;55.53;;;18.20;51.20;;;;;;4987830;28;91809;-89
2022/03/27 01:03:25;;;;;;;74.78;54.88;;;18.20;51.20;;;;;;4999766;28;91929;-90
2022/03/27 01:05:53;;;;;;;75.32;54.38;;;18.20;51.20;;;;;;4980994;28;92954;-89
2022/03/27 01:11:13;;;;;;;74.43;54.33;;;18.20;51.20;;;;;;4999808;28;90220;-89
2022/03/27 01:13:41;;;;;;;;;;;18.20;51.20;;;;;;4997755;28;90432;-89
2022/03/27 01:16:14;;;;;;;73.30;53.45;;;18.20;51.20;;;;;;4983390;28;91472;-89
2022/03/27 01:18:41;;;;;;;73.68;54.33;;;18.20;51.30;;;;;;4982466;28;96252;-89
2022/03/27 01:21:07;;;;;;;73.97;54.70;;;18.10;51.20;;;;;;4998447;28;89811;-89
2022/03/27 01:23:34;;;;;;;72.32;53.35;;;18.10;51.20;;;;;;4994182;28;92630;-88
2022/03/27 01:26:00;;;;;;;76.18;54.53;;;18.10;51.10;;;;;;4974014;28;93938;-89
2022/03/27 01:28:25;;;;;;;73.35;54.60;;;18.10;51.20;;;;;;4978588;28;93886;-89
2022/03/27 01:30:51;;;;;;;76.10;54.53;;;18.10;51.20;;;;;;4982288;28;92013;-89
2022/03/27 01:33:17;;;;;;;72.95;53.65;;;18.10;51.20;;;;;;4998471;28;90232;-89
2022/03/27 01:35:42;;;;;;;72.72;54.13;;;18.10;51.20;;;;;;4982295;28;92375;-89
2022/03/27 01:38:08;;;;;;;72.10;53.95;;;18.10;51.20;;;;;;5004478;28;91078;-89
2022/03/27 01:40:34;;;;;;;72.63;53.97;;;18.10;51.20;;;;;;4996491;28;89434;-89
2022/03/27 01:42:59;;;;;;;71.28;53.03;;;18.10;51.10;;;;;;4979100;28;89294;-89
2022/03/27 01:45:27;;;;;;;73.90;54.20;;;18.10;51.20;;;;;;4980523;28;93549;-89
2022/03/27 01:47:53;;;;;;;73.00;54.22;;;18.10;51.20;;;;;;4978673;28;93937;-89
2022/03/27 01:50:19;;;;;;;73.78;53.83;;;18.10;51.20;;;;;;5001929;28;91859;-88
2022/03/27 01:52:44;;;;;;;70.78;53.20;;;18.10;51.20;;;;;;4994536;28;89004;-89
2022/03/27 01:55:13;;;;;;;73.00;53.85;;;18.10;51.20;;;;;;4995326;28;90217;-89
2022/03/27 01:57:41;;;;;;;73.55;53.65;;;18.10;51.30;;;;;;4995026;28;91532;-89
2022/03/27 02:00:09;;;;;;;74.00;53.60;;;18.10;51.30;;;;;;4980273;28;91137;-89
2022/03/27 02:02:35;;;;;;;72.80;53.08;;;18.10;51.20;;;;;;4999656;28;90665;-89
2022/03/27 02:05:04;;;;;;;73.20;53.95;;;18.10;51.20;;;;;;4998548;28;93465;-89
2022/03/27 02:07:38;;;;;;;72.63;53.10;;;18.10;51.20;;;;;;4978840;28;91235;-89
2022/03/27 02:10:05;;;;;;;71.82;53.13;;;18.10;51.10;;;;;;4991256;28;89531;-89
2022/03/27 02:12:35;;;;;;;71.28;52.92;;;18.00;51.10;;;;;;4985668;28;89945;-89
2022/03/27 02:15:10;;;;;;;71.13;52.85;;;18.10;51.20;;;;;;4980268;28;94064;-89
2022/03/27 02:17:39;;;;;;;70.82;53.25;;;18.00;51.20;;;;;;4981032;28;94467;-89
2022/03/27 02:20:06;;;;;;;71.65;53.33;;;18.10;51.20;;;;;;4993983;28;90819;-89
2022/03/27 02:22:32;;;;;;;70.47;52.40;;;18.00;51.20;;;;;;4976193;28;89643;-89
2022/03/27 02:24:57;;;;;;;70.15;52.60;;;18.00;51.10;;;;;;4999068;28;89882;-89
2022/03/27 02:27:23;;;;;;;71.28;53.60;;;18.00;51.60;;;;;;4996483;28;95117;-89
2022/03/27 02:29:48;;;;;;;69.82;52.33;;;18.00;51.20;;;;;;4975512;28;90602;-89
2022/03/27 02:32:14;;;;;;;71.47;52.33;;;18.00;51.20;;;;;;4978131;28;89309;-89
2022/03/27 02:34:40;;;;;;;69.93;52.40;;;18.00;51.10;;;;;;4995619;28;90052;-89
2022/03/27 02:37:06;;;;;;;71.35;53.13;;;18.00;51.20;;;;;;4980476;28;96881;-89
2022/03/27 02:39:32;;;;;;;71.40;53.13;;;18.00;51.10;;;;;;4978497;28;92026;-89
2022/03/27 02:41:58;;;;;;;70.40;52.90;;;18.00;51.20;;;;;;4980722;28;90386;-89
2022/03/27 02:44:24;;;;;;;71.28;52.78;;;18.00;51.10;;;;;;4996294;28;90933;-89
2022/03/27 02:46:50;;;;;;;71.93;52.72;;;18.00;51.10;;;;;;4997744;28;91817;-90
2022/03/27 02:49:20;;;;;;;69.50;51.95;;;18.00;51.10;;;;;;5000193;28;89880;-89
2022/03/27 02:51:49;;;;;;;71.30;52.90;;;18.00;51.10;;;;;;4993066;28;90202;-89
2022/03/27 02:54:15;;;;;;;71.05;52.38;;;18.00;51.10;;;;;;5000240;28;93032;-89
2022/03/27 02:56:40;;;;;;;70.45;51.97;;;18.00;51.10;;;;;;4986104;28;92543;-90
2022/03/27 02:59:06;;;;;;;70.25;52.25;;;18.00;51.10;;;;;;4998147;28;90781;-88
2022/03/27 03:01:32;;;;;;;71.25;52.80;;;18.00;51.00;;;;;;5003743;28;90305;-89
2022/03/27 03:03:58;;;;;;;70.05;52.88;;;18.00;51.10;;;;;;4976417;28;95479;-89
2022/03/27 03:06:24;;;;;;;69.63;52.00;;;18.00;51.00;;;;;;4998393;28;91330;-89
2022/03/27 03:08:51;;;;;;;70.50;52.35;;;17.90;51.10;;;;;;4976915;28;91085;-89
2022/03/27 03:11:17;;;;;;;71.20;51.95;;;17.90;51.20;;;;;;4995977;28;91024;-89
2022/03/27 03:13:44;;;;;;;69.45;52.28;;;17.90;51.20;;;;;;4975768;28;92901;-89
2022/03/27 03:16:12;;;;;;;70.15;52.38;;;17.90;51.80;;;;;;4991211;28;92796;-89
2022/03/27 03:18:37;;;;;;;68.78;51.53;;;17.90;51.20;;;;;;4971953;28;90479;-89
2022/03/27 03:21:03;;;;;;;69.07;52.20;;;17.90;51.80;;;;;;4981175;28;89447;-89
2022/03/27 03:23:29;;;;;;;70.93;52.30;;;17.90;51.20;;;;;;4984232;28;93527;-88
2022/03/27 03:25:55;;;;;;;71.70;52.40;;;17.90;51.10;;;;;;4985376;28;91255;-89
2022/03/27 03:28:21;;;;;;;70.60;52.00;;;17.90;51.10;;;;;;4998510;28;91755;-89
2022/03/27 03:30:47;;;;;;;70.68;52.45;;;17.90;51.10;;;;;;4991210;28;95682;-89
2022/03/27 03:33:12;;;;;;;70.53;52.35;;;17.90;51.10;;;;;;4984251;28;94153;-89
2022/03/27 03:35:39;;;;;;;69.18;52.22;;;17.90;51.20;;;;;;4994453;28;91661;-89
2022/03/27 03:38:05;;;;;;;69.95;52.00;;;17.90;51.20;;;;;;4980578;28;89871;-89
2022/03/27 03:40:31;;;;;;;69.88;51.92;;;17.80;51.10;;;;;;4983298;28;90087;-89
2022/03/27 03:42:57;;;;;;;69.15;51.85;;;17.80;51.20;;;;;;5002899;28;90147;-89
2022/03/27 03:45:23;;;;;;;68.78;51.63;;;17.90;51.20;;;;;;4972271;28;91398;-89
2022/03/27 03:47:49;;;;;;;68.78;51.78;;;17.90;51.20;;;;;;4997586;28;89841;-89
2022/03/27 03:50:15;;;;;;;70.10;51.75;;;17.90;51.70;;;;;;4976919;28;90083;-89
2022/03/27 03:52:41;;;;;;;68.95;51.53;;;17.80;51.60;;;;;;5003667;28;92441;-89
2022/03/27 03:55:07;;;;;;;69.68;51.90;;;17.80;51.20;;;;;;5001088;28;93283;-89
2022/03/27 03:57:33;;;;;;;68.40;51.47;;;17.80;51.70;;;;;;5014476;28;89458;-89
2022/03/27 03:59:59;;;;;;;70.07;51.63;;;17.80;51.10;;;;;;4987133;28;89976;-89
2022/03/27 04:02:24;;;;;;;68.07;51.13;;;17.80;51.20;;;;;;4996503;28;90429;-89
2022/03/27 04:04:50;;;;;;;68.45;50.95;;;17.80;51.10;;;;;;4983061;28;94436;-89
2022/03/27 04:07:15;;;;;;;70.00;51.28;;;17.80;51.20;;;;;;4980894;28;89893;-89
2022/03/27 04:09:41;;;;;;;68.57;51.42;;;17.80;51.20;;;;;;4982025;28;89084;-89
2022/03/27 04:12:07;;;;;;;69.53;51.75;;;17.90;51.20;;;;;;4984488;28;94887;-89
2022/03/27 04:14:36;;;;;;;68.78;51.35;;;17.90;51.30;;;;;;4993862;28;93158;-89
2022/03/27 04:17:03;;;;;;;68.80;51.17;;;18.00;51.30;;;;;;4977479;28;91212;-89
2022/03/27 04:19:29;;;;;;;68.15;51.22;;;18.00;51.20;;;;;;4993380;28;95822;-89
2022/03/27 04:21:55;;;;;;;68.68;51.30;;;18.10;51.20;;;;;;5006303;28;91755;-89
2022/03/27 04:24:21;;;;;;;69.78;51.85;;;18.10;51.20;;;;;;4981051;28;91244;-89
2022/03/27 04:26:47;;;;;;;71.10;52.10;;;18.20;51.20;;;;;;4983575;28;89955;-89
2022/03/27 04:29:13;;;;;;;68.72;51.47;;;18.20;51.00;;;;;;4978919;28;94469;-89
2022/03/27 04:31:40;;;;;;;68.15;51.13;;;18.30;51.00;;;;;;5002891;28;90254;-89
2022/03/27 04:34:05;;;;;;;68.35;51.28;;;18.40;50.90;;;;;;4982605;28;91078;-89
2022/03/27 04:36:31;;;;;;;68.30;51.53;;;18.40;50.80;;;;;;5005708;28;89510;-89
2022/03/27 04:38:57;;;;;;;69.93;51.67;;;18.50;50.80;;;;;;5005037;28;89745;-89
2022/03/27 04:41:22;;;;;;;67.80;51.15;;;18.50;50.60;;;;;;5003277;28;92970;-89
2022/03/27 04:43:48;;;;;;;68.15;51.28;;;18.60;50.60;;;;;;4985708;28;93603;-89
2022/03/27 04:46:17;;;;;;;69.60;51.42;;;18.60;50.50;;;;;;4996746;28;89640;-89
2022/03/27 04:48:44;;;;;;;67.97;50.83;;;18.60;50.50;;;;;;4981280;28;90592;-89
2022/03/27 04:51:11;;;;;;;68.70;51.20;;;18.70;50.40;;;;;;4997792;28;89786;-89
2022/03/27 04:53:36;;;;;;;68.93;51.65;;;18.70;50.30;;;;;;5003678;28;90813;-89
2022/03/27 04:56:02;;;;;;;69.43;51.55;;;18.80;50.30;;;;;;5002856;28;89940;-89
2022/03/27 04:58:27;;;;;;;68.80;51.45;;;18.80;50.20;;;;;;5017475;28;90654;-90
2022/03/27 05:00:53;;;;;;;69.05;51.60;;;18.90;50.20;;;;;;5002118;28;91654;-89
2022/03/27 05:03:19;;;;;;;68.70;51.15;;;18.90;50.10;;;;;;4980294;28;92038;-89
2022/03/27 05:05:44;;;;;;;68.38;51.15;;;18.90;50.00;;;;;;4997009;28;92006;-89
2022/03/27 05:08:10;;;;;;;68.95;51.15;;;18.90;49.90;;;;;;4986977;28;95253;-89
2022/03/27 05:10:37;;;;;;;69.53;51.38;;;19.00;49.80;;;;;;5001834;28;89459;-89
2022/03/27 05:13:03;;;;;;;70.50;51.83;;;19.00;49.90;;;;;;5005540;28;90989;-89
2022/03/27 05:15:28;;;;;;;68.72;51.25;;;19.00;49.80;;;;;;4992151;28;89546;-89
2022/03/27 05:17:58;;;;;;;68.93;51.40;;;19.10;49.70;;;;;;4982801;28;89437;-89
2022/03/27 05:20:25;;;;;;;68.43;50.97;;;19.00;49.60;;;;;;4986217;28;92263;-89
2022/03/27 05:22:51;;;;;;;68.75;51.55;;;19.10;49.70;;;;;;4982870;28;92172;-89
2022/03/27 05:25:18;;;;;;;69.53;51.55;;;19.10;49.70;;;;;;4991921;28;89482;-89
2022/03/27 05:27:53;;;;;;;68.32;51.00;;;19.20;49.70;;;;;;4982878;28;89686;-89
2022/03/27 05:30:25;;;;;;;70.32;51.92;;;19.20;49.50;;;;;;4996394;28;91335;-90
2022/03/27 05:32:51;;;;;;;;;;;19.20;49.40;;;;;;5001057;28;91071;-90
2022/03/27 05:35:18;;;;;;;68.53;51.20;;;19.20;49.40;;;;;;4996219;28;91246;-89
2022/03/27 05:37:46;;;;;;;67.90;50.80;;;19.30;49.40;;;;;;4999958;28;89988;-89
2022/03/27 05:40:14;;;;;;;69.35;51.25;;;19.30;49.30;;;;;;4994603;28;93181;-90
2022/03/27 05:42:42;;;;;;;69.53;51.70;;;19.40;49.20;;;;;;4998837;28;90399;-89
2022/03/27 05:45:10;;;;;;;68.57;51.20;;;19.40;49.20;;;;;;4976912;28;97159;-89
2022/03/27 05:47:37;;;;;;;68.35;50.97;;;19.40;49.10;;;;;;4991377;28;89683;-89
2022/03/27 05:50:04;;;;;;;68.18;51.20;;;19.40;49.10;;;;;;4998969;28;91070;-89
2022/03/27 05:52:30;;;;;;;68.97;51.30;;;19.40;49.10;;;;;;5009848;28;90662;-90
2022/03/27 05:54:57;;;;;;;68.68;50.97;;;19.40;49.00;;;;;;4989554;28;90453;-89
2022/03/27 05:57:23;;;;;;;68.65;51.55;;;19.40;49.10;;;;;;4985483;28;90608;-91
2022/03/27 05:59:49;;;;;;;69.03;51.35;;;19.50;49.00;;;;;;5020926;28;90966;-90
2022/03/27 06:02:15;;;;;;;69.38;51.30;;;19.50;48.80;;;;;;5002446;28;91375;-90
2022/03/27 06:04:41;;;;;;;70.65;51.30;;;19.50;48.80;;;;;;4980821;28;89615;-90
2022/03/27 06:07:08;;;;;;;68.60;51.03;;;19.50;49.00;;;;;;4997344;28;90805;-90
2022/03/27 06:09:34;;;;;;;68.65;51.13;;;19.60;48.70;;;;;;4978549;28;94485;-90
2022/03/27 06:12:01;;;;;;;69.72;51.42;;;19.60;48.70;;;;;;4976822;28;92589;-90
2022/03/27 06:14:28;;;;;;;68.38;51.17;;;19.60;48.70;;;;;;4997406;28;90578;-90
2022/03/27 06:16:53;;;;;;;69.93;51.22;;;19.60;48.70;;;;;;4977492;28;89984;-90
2022/03/27 06:19:19;;;;;;;68.95;51.08;;;19.60;48.60;;;;;;4985472;28;95760;-91
2022/03/27 06:21:45;;;;;;;68.43;51.05;;;19.60;48.50;;;;;;5002174;28;91256;-91
2022/03/27 06:24:12;;;;;;;68.00;50.95;;;19.60;48.50;;;;;;4978202;28;91341;-91
2022/03/27 06:26:44;;;;;;;69.13;51.08;;;19.60;48.50;;;;;;4986922;28;90294;-90
2022/03/27 06:29:14;;;;;;;69.45;51.17;;;19.60;48.40;;;;;;4985993;28;89615;-90
2022/03/27 06:31:40;;;;;;;69.13;51.20;;;19.60;48.40;;;;;;4977413;28;92335;-89
2022/03/27 06:34:06;;;;;;;68.38;50.85;;;19.60;48.30;;;;;;4974979;28;89568;-90
2022/03/27 06:36:34;;;;;;;69.13;51.00;;;19.60;48.30;;;;;;4988637;28;89384;-90
2022/03/27 06:39:00;;;;;;;70.40;51.15;;;19.60;48.30;;;;;;4993698;28;90239;-89
2022/03/27 06:41:26;;;;;;;70.43;51.13;;;19.60;48.20;;;;;;4996940;28;93815;-90
2022/03/27 06:43:52;;;;;;;69.70;51.25;;;19.60;48.20;;;;;;4994146;28;90689;-89
2022/03/27 06:46:17;;;;;;;69.40;50.90;;;19.60;48.20;;;;;;4991575;28;90473;-88
2022/03/27 06:48:44;;;;;;;68.25;50.88;;;19.60;48.10;;;;;;4992607;28;93511;-88
2022/03/27 06:51:10;;;;;;;69.43;51.00;;;19.50;48.10;;;;;;4993595;28;90763;-89
2022/03/27 06:53:39;;;;;;;69.22;51.00;;;19.50;48.10;;;;;;4991891;28;90108;-90
2022/03/27 06:56:05;;;;;;;68.57;50.78;;;19.50;48.10;;;;;;4997587;28;90945;-90
2022/03/27 06:58:39;;;;;;;67.95;50.75;;;19.50;48.10;;;;;;4990919;28;92178;-90
2022/03/27 07:03:49;;;;;;;70.25;51.25;;;19.40;48.10;;;;;;5011459;28;92332;-89
2022/03/27 07:06:16;;;;;;;70.60;51.05;;;19.40;48.10;;;;;;4979706;28;89599;-90
2022/03/27 07:08:43;;;;;;;68.43;50.50;;;19.40;48.10;;;;;;4985477;28;92295;-89
2022/03/27 07:11:09;;;;;;;69.50;51.10;;;19.40;48.10;;;;;;4995777;28;89722;-90
2022/03/27 07:13:35;;;;;;;68.20;50.60;;;19.30;48.20;;;;;;5001543;28;90212;-89
2022/03/27 07:16:03;;;;;;;68.93;51.30;;;19.30;48.20;;;;;;4980847;28;90005;-89
2022/03/27 07:18:29;;;;;;;68.68;50.83;;;19.30;48.30;;;;;;4999367;28;89955;-90
2022/03/27 07:20:55;;;;;;;69.25;51.28;;;19.20;48.30;;;;;;5001389;28;91532;-89
2022/03/27 07:23:21;;;;;;;68.28;50.65;;;19.20;48.30;;;;;;4978210;28;89761;-90
2022/03/27 07:25:50;;;;;;;69.00;51.22;;;19.20;48.40;;;;;;4984967;28;89394;-88
2022/03/27 07:28:18;;;;;;;68.82;51.20;;;19.20;48.50;;;;;;4978899;28;95378;-88
2022/03/27 07:30:45;;;;;;;68.85;50.83;;;19.20;48.50;;;;;;4976519;28;90443;-88
2022/03/27 07:33:11;;;;;;;69.63;51.08;;;19.20;48.60;;;;;;4980761;28;91838;-88
2022/03/27 07:35:37;;;;;;;68.90;50.88;;;19.10;48.60;;;;;;4991416;28;90816;-88
2022/03/27 07:38:04;;;;;;;68.97;51.25;;;19.10;48.60;;;;;;4985593;28;96803;-89
2022/03/27 07:40:30;;;;;;;69.47;51.45;;;19.10;48.70;;;;;;4992673;28;90404;-88
2022/03/27 07:42:56;;;;;;;68.88;51.35;;;19.10;48.70;;;;;;4993190;28;91211;-87
2022/03/27 07:45:25;;;;;;;68.93;50.78;;;19.10;48.70;;;;;;4998449;28;91098;-87
2022/03/27 07:47:52;;;;;;;69.45;51.45;;;19.10;48.80;;;;;;4996427;28;92958;-88
2022/03/27 07:50:19;;;;;;;70.82;51.03;;;19.10;48.90;;;;;;4995890;28;90801;-88
2022/03/27 07:52:50;;;;;;;68.32;50.92;;;19.10;49.10;;;;;;4998469;28;90540;-88
2022/03/27 07:55:17;;;;;;;;;;;19.10;49.30;;;;;;4999448;28;90230;-88
2022/03/27 07:57:43;;;;;;;70.15;51.13;;;19.10;49.40;;;;;;5001842;28;91191;-89
2022/03/27 08:00:11;;;;;;;68.10;50.78;;;19.10;49.50;;;;;;5002513;28;92293;-88
2022/03/27 08:02:38;;;;;;;69.07;50.83;;;19.10;49.70;;;;;;5020977;28;90669;-88
2022/03/27 08:05:05;;;;;;;71.38;51.55;;;19.10;49.70;;;;;;5000735;28;90512;-87
2022/03/27 08:07:30;;;;;;;74.07;52.17;;;19.10;49.60;;;;;;4996183;28;92565;-87
2022/03/27 08:09:56;;;;;;;73.93;51.72;;;19.10;49.70;;;;;;4998798;28;90433;-87
2022/03/27 08:12:22;;;;;;;72.25;51.90;;;19.10;49.60;;;;;;4978234;28;90603;-87
2022/03/27 08:14:50;;;;;;;75.28;51.50;;;19.20;49.70;;;;;;5001878;28;88894;-87
2022/03/27 08:17:16;;;;;;;74.75;52.22;;;19.20;49.60;;;;;;5000548;28;94700;-87
2022/03/27 08:19:43;;;;;;;73.05;51.53;;;19.20;49.60;;;;;;4997386;28;90774;-87
2022/03/27 08:22:10;;;;;;;74.93;52.08;;;19.30;49.50;;;;;;4997373;28;97014;-87
2022/03/27 08:24:36;;;;;;;73.32;51.85;;;19.30;50.00;;;;;;4980382;28;89963;-87
2022/03/27 08:27:04;;;;;;;75.57;52.42;;;19.30;49.30;;;;;;4994891;28;91838;-87
2022/03/27 08:29:31;;;;;;;72.53;51.65;;;19.30;49.30;;;;;;4992176;28;92094;-88
2022/03/27 08:32:00;;;;;;;73.10;52.10;;;19.40;49.20;;;;;;4997391;28;91558;-88
2022/03/27 08:34:28;;;;;;;72.88;52.42;;;19.40;49.20;;;;;;4980783;28;90351;-89
2022/03/27 08:36:57;;;;;;;75.97;52.65;;;19.50;49.10;;;;;;4994314;28;89996;-88
2022/03/27 08:39:24;;;;;;;76.25;52.35;;;19.40;49.00;;;;;;4994179;28;89784;-88
2022/03/27 08:41:51;;;;;;;72.32;52.42;;;19.50;49.00;;;;;;4993019;28;89842;-88
2022/03/27 08:44:19;;;;;;;74.15;52.38;;;19.50;49.00;;;;;;4994087;28;90692;-88
2022/03/27 08:46:46;;;;;;;72.28;51.95;;;19.50;49.00;;;;;;4976294;28;94334;-88
2022/03/27 08:49:34;;;;;;;73.25;52.60;;;19.60;49.00;;;;;;5000527;28;90379;-88
2022/03/27 08:52:17;;;;;;;74.15;52.40;;;19.60;48.90;;;;;;4991791;28;91375;-88
2022/03/27 08:54:52;;;;;;;75.75;53.03;;;19.60;48.90;;;;;;4984558;28;90636;-88
2022/03/27 08:57:26;;;;;;;73.07;52.90;;;19.60;48.80;;;;;;4995468;28;91114;-88
2022/03/27 08:59:53;;;;;;;73.68;52.85;;;19.60;48.80;;;;;;4971744;28;92112;-88
2022/03/27 09:02:25;;;;;;;73.57;52.72;;;19.70;48.80;;;;;;4996463;28;90091;-88
2022/03/27 09:04:54;;;;;;;75.03;53.42;;;19.70;48.80;;;;;;4987443;28;88950;-88
2022/03/27 09:07:24;;;;;;;73.45;52.40;;;19.70;48.70;;;;;;4967816;28;94504;-88
2022/03/27 09:09:50;;;;;;;77.07;52.95;;;19.70;48.70;;;;;;4980753;28;91362;-88
2022/03/27 09:12:18;;;;;;;73.38;52.92;;;19.70;48.80;;;;;;4974433;28;90898;-88
2022/03/27 09:14:44;;;;;;;78.15;53.08;;;19.80;48.70;;;;;;4980898;28;90876;-88
2022/03/27 09:17:10;;;;;;;77.65;53.00;;;19.80;48.70;;;;;;4979481;28;90978;-88
2022/03/27 09:19:40;;;;;;;81.38;53.67;;;19.80;48.70;;;;;;4973343;28;92229;-87
2022/03/27 09:22:15;;;;;;;73.95;52.55;;;19.90;48.80;;;;;;4979284;28;90394;-87
2022/03/27 09:24:42;;;;;;;75.75;53.55;;;19.90;48.90;;;;;;4981484;28;90784;-87
2022/03/27 09:27:08;;;;;;;80.05;54.38;;;19.90;49.00;;;;;;4982852;28;91017;-87
2022/03/27 09:30:00;;;;;;;82.32;54.55;;;20.00;49.20;;;;;;4983638;28;90741;-87
2022/03/27 09:32:37;;;;;;;81.97;55.08;;;20.00;49.40;;;;;;4988239;28;90041;-87
2022/03/27 09:35:09;;;;;;;81.25;55.08;;;20.00;49.50;;;;;;4985146;28;94290;-87
2022/03/27 09:37:38;;;;;;;81.10;55.35;;;20.10;49.50;;;;;;4984215;28;91889;-87
2022/03/27 09:40:05;;;;;;;82.43;55.58;;;20.10;49.70;;;;;;4980766;28;92201;-87
2022/03/27 09:42:31;;;;;;;82.57;56.35;;;20.10;49.80;;;;;;4965476;28;90475;-87
2022/03/27 09:45:21;;;;;;;82.82;56.40;;;20.10;49.80;;;;;;4969872;28;89956;-87
2022/03/27 09:47:49;;;;;;;81.13;56.33;;;20.10;50.00;;;;;;4959573;28;91673;-87
2022/03/27 09:50:38;;;;;;;82.93;57.33;;;20.10;50.10;;;;;;4986884;28;94940;-87
2022/03/27 09:53:26;;;;;;;81.18;56.35;;;20.10;50.10;;;;;;4988293;28;89979;-87
2022/03/27 09:55:59;;;;;;;84.20;57.22;;;20.10;50.10;;;;;;4982110;28;89379;-87
2022/03/27 09:58:34;;;;;;;84.68;57.38;;;20.10;50.10;;;;;;4979897;28;91416;-87
2022/03/27 10:01:26;;;;;;;81.88;57.42;;;20.10;50.10;;;;;;4982681;28;94269;-87
2022/03/27 10:04:13;;;;;;;84.50;57.05;;;20.10;50.10;;;;;;4994204;28;90411;-88
2022/03/27 10:06:40;;;;;;;88.35;57.80;;;20.10;50.10;;;;;;4968506;28;89530;-87
2022/03/27 10:09:12;;;;;;;84.10;58.05;;;20.10;50.10;;;;;;4979188;28;90680;-87
2022/03/27 10:11:40;;;;;;;81.03;57.72;;;20.10;50.10;;;;;;4977824;28;94499;-87
2022/03/27 10:14:07;;;;;;;90.85;59.20;;;20.10;50.20;;;;;;4980449;28;89494;-87
2022/03/27 10:16:36;;;;;;;85.88;59.00;;;20.10;50.20;;;;;;4981006;28;90205;-87
2022/03/27 10:19:06;;;;;;;86.05;59.92;;;20.10;50.30;;;;;;4972726;28;90339;-87
2022/03/27 10:21:32;;;;;;;90.00;60.28;;;20.10;50.40;;;;;;4977339;28;93145;-86
2022/03/27 10:24:01;;;;;;;90.13;60.47;;;20.10;50.40;;;;;;4974357;28;91513;-87
2022/03/27 10:26:28;;;;;;;87.05;59.38;;;20.10;50.50;;;;;;4962691;28;90103;-86
2022/03/27 10:28:54;;;;;;;93.47;60.30;;;20.10;50.50;;;;;;4957052;28;96258;-87
2022/03/27 10:31:21;;;;;;;89.68;59.30;;;20.10;51.20;;;;;;4961705;28;92692;-86
2022/03/27 10:33:50;;;;;;;92.43;60.25;;;20.10;50.60;;;;;;4973779;28;92276;-87
2022/03/27 10:36:29;;;;;;;90.05;60.22;;;20.10;50.60;;;;;;4961296;28;91290;-86
2022/03/27 10:39:08;;;;;;;89.65;60.33;;;20.10;50.60;;;;;;4956517;28;91663;-87
2022/03/27 10:42:02;;;;;;;92.07;60.10;;;20.00;50.60;;;;;;4971506;28;90019;-87
2022/03/27 10:44:42;;;;;;;92.18;60.22;;;20.10;50.70;;;;;;4966175;28;90329;-87
2022/03/27 10:47:19;;;;;;;87.88;60.55;;;20.10;50.70;;;;;;4963459;28;89836;-87
2022/03/27 10:50:05;;;;;;;89.03;60.05;;;20.10;50.70;;;;;;4957621;28;92731;-87
2022/03/27 10:52:36;;;;;;;88.90;59.80;;;20.10;50.70;;;;;;4958977;28;92701;-87
2022/03/27 10:55:07;;;;;;;;;;;20.10;50.80;;;;;;4972599;28;92305;-87
2022/03/27 10:57:37;;;;;;;87.90;59.53;;;20.10;50.80;;;;;;4963254;28;90194;-87
2022/03/27 11:00:06;;;;;;;89.27;59.63;;;20.10;50.80;;;;;;4993098;28;90865;-86
2022/03/27 11:02:49;;;;;;;89.28;60.55;;;20.10;50.90;;;;;;5003162;28;90702;-86
2022/03/27 11:05:36;;;;;;;88.70;59.70;;;20.10;50.90;;;;;;4997680;28;89442;-87
2022/03/27 11:08:16;;;;;;;90.88;59.50;;;20.10;50.90;;;;;;4999964;28;91534;-87
2022/03/27 11:10:44;;;;;;;91.28;59.83;;;20.10;51.00;;;;;;5000230;28;90808;-87
2022/03/27 11:13:25;;;;;;;89.65;59.58;;;20.10;51.00;;;;;;4986355;28;96140;-86
2022/03/27 11:16:09;;;;;;;86.55;59.20;;;20.10;51.00;;;;;;4993764;28;92466;-86
2022/03/27 11:18:39;;;;;;;91.43;60.45;;;20.10;51.10;;;;;;4991934;28;90464;-86
2022/03/27 11:21:06;;;;;;;88.40;60.53;;;20.10;51.10;;;;;;4982533;28;93203;-86
2022/03/27 11:23:37;;;;;;;91.90;60.50;;;20.10;51.20;;;;;;5000954;28;90494;-86
2022/03/27 11:26:24;;;;;;;86.85;60.33;;;20.10;51.20;;;;;;4999724;28;90342;-86
2022/03/27 11:28:52;;;;;;;89.22;59.83;;;20.10;51.20;;;;;;4975773;28;90350;-86
2022/03/27 11:31:25;;;;;;;87.47;60.90;;;20.10;51.30;;;;;;4980722;28;95680;-85
2022/03/27 11:34:09;;;;;;;90.38;60.75;;;20.10;51.20;;;;;;4967985;28;91984;-85
2022/03/27 11:36:39;;;;;;;88.93;60.25;;;20.10;51.30;;;;;;4992527;28;89382;-86
2022/03/27 11:39:09;;;;;;;92.00;60.80;;;20.10;51.30;;;;;;4989302;28;91431;-87
2022/03/27 11:41:44;;;;;;;87.32;61.03;;;20.10;52.00;;;;;;4982127;28;90416;-87
2022/03/27 11:44:24;;;;;;;88.30;60.17;;;20.10;51.40;;;;;;4996719;28;91540;-87
2022/03/27 11:46:54;;;;;;;87.75;60.78;;;20.10;51.50;;;;;;4997748;28;91596;-87
2022/03/27 11:49:21;;;;;;;90.23;60.87;;;20.10;51.50;;;;;;5001732;28;90258;-88
2022/03/27 11:52:02;;;;;;;92.70;61.47;;;20.10;51.50;;;;;;4985744;28;93784;-88
2022/03/27 11:54:28;;;;;;;89.28;60.70;;;20.10;51.60;;;;;;4979848;28;92887;-88
2022/03/27 11:57:01;;;;;;;88.07;59.63;;;20.10;51.70;;;;;;4981576;28;91832;-88
2022/03/27 11:59:27;;;;;;;86.97;60.88;;;20.10;51.60;;;;;;4985336;28;90179;-88
2022/03/27 12:01:55;;;;;;;88.75;60.70;;;20.10;51.70;;;;;;5000022;28;95343;-88
2022/03/27 12:04:21;;;;;;;89.88;60.72;;;20.10;51.70;;;;;;5009184;28;89872;-88
2022/03/27 12:06:57;;;;;;;89.18;61.15;;;20.10;51.70;;;;;;5002751;28;89222;-87
2022/03/27 12:09:24;;;;;;;89.30;61.15;;;20.10;51.70;;;;;;5003628;28;89574;-87
2022/03/27 12:12:08;;;;;;;92.55;61.67;;;20.10;51.80;;;;;;4997594;28;91134;-87
2022/03/27 12:14:52;;;;;;;90.53;61.50;;;20.10;51.80;;;;;;4979504;28;93389;-87
2022/03/27 12:17:18;;;;;;;96.63;62.47;;;20.20;52.00;;;;;;4998564;28;90068;-88
2022/03/27 12:20:10;;;;;;;91.28;62.40;;;20.20;52.20;;;;;;4997504;28;90422;-86
2022/03/27 12:22:49;;;;;;;92.00;62.25;;;20.20;52.30;;;;;;5008905;28;94617;-87
2022/03/27 12:25:15;;;;;;;93.88;63.03;;;20.20;52.30;;;;;;5001695;28;92765;-88
2022/03/27 12:30:33;;;;;;;92.40;63.20;;;20.20;52.50;;;;;;4997231;28;89574;-88
2022/03/27 12:33:01;;;;;;;94.32;64.07;;;20.30;52.80;;;;;;4980798;28;91984;-88
2022/03/27 12:35:28;;;;;;;92.38;63.13;;;20.20;53.10;;;;;;4978527;28;93859;-88
2022/03/27 12:37:55;;;;;;;96.72;62.28;;;20.30;53.50;;;;;;4978854;28;91634;-88
2022/03/27 12:40:20;;;;;;;91.03;62.92;;;20.30;53.80;;;;;;4977962;28;91664;-87
2022/03/27 12:42:51;;;;;;;89.38;62.55;;;20.30;53.80;;;;;;4982611;28;94499;-88
2022/03/27 12:45:35;;;;;;;91.05;61.97;;;20.30;53.80;;;;;;5005678;28;89615;-89